Time;durP1;ratioP1;P1;durP2;ratioP2;P2;SDS_P1;SDS_P2;PMS_P1;PMS_P2;Temp;Humidity;BMP_temperature;BMP_pressure;BME280_temperature;BME280_humidity;BME280_pressure;Samples;Min_cycle;Max_cycle;Signal;HPM_P1;HPM_P2
2021/12/15 00:00:25;;;;;;;0.00;0.00;;;4.60;99.90;;;;;;5014752;28;20057;-78
2021/12/15 00:02:52;;;;;;;0.98;0.38;;;4.60;99.90;;;;;;5005271;28;20022;-80
2021/12/15 00:05:23;;;;;;;0.00;0.00;;;4.60;99.90;;;;;;4994869;28;20073;-80
2021/12/15 00:07:52;;;;;;;0.00;0.00;;;4.60;99.90;;;;;;4995207;28;20022;-78
2021/12/15 00:10:20;;;;;;;0.25;0.10;;;4.60;99.90;;;;;;4994733;28;20022;-78
2021/12/15 00:12:46;;;;;;;0.08;0.08;;;4.60;99.90;;;;;;4993976;28;20026;-77
2021/12/15 00:15:12;;;;;;;0.00;0.00;;;4.70;99.90;;;;;;4994741;28;20029;-78
2021/12/15 00:17:38;;;;;;;0.32;0.32;;;4.70;99.90;;;;;;4994517;28;20037;-80
2021/12/15 00:20:09;;;;;;;0.22;0.10;;;4.70;99.90;;;;;;4993886;28;20031;-80
2021/12/15 00:22:35;;;;;;;1.95;0.52;;;4.70;99.90;;;;;;4994748;28;20058;-78
2021/12/15 00:25:02;;;;;;;0.10;0.10;;;4.60;99.90;;;;;;4994225;28;20030;-78
2021/12/15 00:27:28;;;;;;;1.95;0.63;;;4.60;99.90;;;;;;5014236;28;20041;-77
2021/12/15 00:29:54;;;;;;;0.47;0.47;;;4.60;99.90;;;;;;5014391;28;20022;-80
2021/12/15 00:32:19;;;;;;;0.00;0.00;;;4.60;99.90;;;;;;5012795;28;20025;-78
2021/12/15 00:34:45;;;;;;;0.15;0.15;;;4.60;99.90;;;;;;5014058;28;20481;-78
2021/12/15 00:37:11;;;;;;;0.70;0.70;;;4.60;99.90;;;;;;5014037;28;20101;-78
2021/12/15 00:39:37;;;;;;;0.00;0.00;;;4.60;99.90;;;;;;5013934;28;20038;-80
2021/12/15 00:42:04;;;;;;;0.00;0.00;;;4.60;99.90;;;;;;5014120;28;20072;-80
2021/12/15 00:44:30;;;;;;;0.20;0.20;;;4.70;99.90;;;;;;5013838;28;20025;-80
2021/12/15 00:46:56;;;;;;;0.30;0.30;;;4.70;99.90;;;;;;5014083;28;20026;-78
2021/12/15 00:49:23;;;;;;;0.00;0.00;;;4.70;99.90;;;;;;5009939;28;20405;-78
2021/12/15 00:51:49;;;;;;;0.00;0.00;;;4.70;99.90;;;;;;4994014;28;20026;-78
2021/12/15 00:54:15;;;;;;;0.68;0.68;;;4.70;99.90;;;;;;4993756;28;20524;-80
2021/12/15 00:56:42;;;;;;;0.10;0.10;;;4.60;99.90;;;;;;4994229;28;20065;-80
2021/12/15 00:59:09;;;;;;;0.00;0.00;;;4.60;99.90;;;;;;4993940;28;20030;-80
2021/12/15 01:01:36;;;;;;;0.47;0.45;;;4.60;99.90;;;;;;4993715;28;20026;-78
2021/12/15 01:04:04;;;;;;;0.15;0.15;;;4.60;99.90;;;;;;4993695;28;20057;-78
2021/12/15 01:06:30;;;;;;;0.10;0.10;;;4.50;99.90;;;;;;4994131;28;20105;-78
2021/12/15 01:09:01;;;;;;;0.25;0.10;;;4.60;99.90;;;;;;4994754;28;20035;-80
2021/12/15 01:19:53;;;;;;;0.22;0.22;;;4.40;99.90;;;;;;4999439;28;20108;-78
2021/12/15 01:22:24;;;;;;;0.10;0.10;;;4.50;99.90;;;;;;4996975;28;20060;-78
2021/12/15 01:24:52;;;;;;;0.13;0.13;;;4.50;99.90;;;;;;4997897;28;20023;-78
2021/12/15 01:27:18;;;;;;;0.08;0.08;;;4.50;99.90;;;;;;5018800;28;20022;-77
2021/12/15 01:29:47;;;;;;;0.30;0.10;;;4.40;99.90;;;;;;5012271;28;20481;-77
2021/12/15 01:32:13;;;;;;;0.20;0.17;;;4.40;99.90;;;;;;5012941;28;20022;-77
2021/12/15 01:34:38;;;;;;;0.00;0.00;;;4.40;99.90;;;;;;5013019;28;20512;-80
2021/12/15 01:37:05;;;;;;;0.00;0.00;;;4.40;99.90;;;;;;5012862;28;20033;-78
2021/12/15 01:39:31;;;;;;;0.10;0.10;;;4.30;99.90;;;;;;5013394;28;20097;-77
2021/12/15 01:41:57;;;;;;;0.20;0.20;;;4.30;99.90;;;;;;5013241;28;20116;-77
2021/12/15 01:46:56;;;;;;;0.10;0.10;;;4.30;99.90;;;;;;5013305;28;20034;-80
2021/12/15 01:49:34;;;;;;;0.00;0.00;;;4.30;99.90;;;;;;5010337;28;20076;-80
2021/12/15 01:52:12;;;;;;;0.35;0.35;;;4.30;99.90;;;;;;4992766;28;20054;-78
2021/12/15 01:54:42;;;;;;;0.00;0.00;;;4.30;99.90;;;;;;4993256;28;20126;-80
2021/12/15 01:57:09;;;;;;;0.63;0.50;;;4.30;99.90;;;;;;4993279;28;20126;-78
2021/12/15 01:59:35;;;;;;;1.45;0.22;;;4.30;99.90;;;;;;5002786;28;20105;-80
2021/12/15 02:02:02;;;;;;;0.00;0.00;;;4.30;99.90;;;;;;5012433;28;20442;-80
2021/12/15 02:04:28;;;;;;;1.08;0.75;;;4.30;99.90;;;;;;5012375;28;20029;-78
2021/12/15 02:06:55;;;;;;;0.10;0.10;;;4.30;99.90;;;;;;5012568;28;20022;-78
2021/12/15 02:10:01;;;;;;;0.08;0.08;;;4.30;99.90;;;;;;5012310;28;20018;-78
2021/12/15 02:12:18;;;;;;;0.85;0.45;;;4.20;99.90;;;;;;5012432;28;20038;-80
2021/12/15 02:14:44;;;;;;;0.00;0.00;;;4.30;99.90;;;;;;5011588;28;20034;-80
2021/12/15 02:17:10;;;;;;;0.10;0.10;;;4.30;99.90;;;;;;5010954;28;20029;-80
2021/12/15 02:19:36;;;;;;;0.03;0.03;;;4.40;99.90;;;;;;5010983;28;20030;-78
2021/12/15 02:22:02;;;;;;;0.10;0.10;;;4.40;99.90;;;;;;5012322;28;20033;-78
2021/12/15 02:24:28;;;;;;;0.43;0.35;;;4.40;99.90;;;;;;5012543;28;20018;-78
2021/12/15 02:26:59;;;;;;;0.65;0.50;;;4.40;99.90;;;;;;4994988;28;20045;-78
2021/12/15 02:29:25;;;;;;;0.28;0.28;;;4.40;99.90;;;;;;4992764;28;20042;-78
2021/12/15 02:37:20;;;;;;;0.28;0.28;;;4.50;99.90;;;;;;4992816;28;20142;-77
2021/12/15 02:39:56;;;;;;;0.08;0.08;;;4.40;99.90;;;;;;4991411;28;20037;-80
2021/12/15 02:42:28;;;;;;;0.17;0.17;;;4.30;99.90;;;;;;4992016;28;20067;-78
2021/12/15 02:44:55;;;;;;;0.00;0.00;;;4.30;99.90;;;;;;4994790;28;20018;-78
2021/12/15 02:47:25;;;;;;;0.30;0.30;;;4.30;99.90;;;;;;4996384;28;20030;-78
2021/12/15 02:49:53;;;;;;;1.02;0.20;;;4.30;99.90;;;;;;4995966;28;20073;-78
2021/12/15 02:52:19;;;;;;;0.00;0.00;;;4.30;99.90;;;;;;4996078;28;20378;-80
2021/12/15 02:54:45;;;;;;;0.10;0.10;;;4.30;99.90;;;;;;4995317;28;20065;-80
2021/12/15 02:57:12;;;;;;;0.20;0.20;;;4.40;99.90;;;;;;4996474;28;20108;-78
2021/12/15 03:00:06;;;;;;;0.35;0.35;;;4.40;99.90;;;;;;4996222;28;20045;-80
2021/12/15 03:05:14;;;;;;;0.20;0.20;;;4.30;99.90;;;;;;4996017;28;20073;-80
2021/12/15 03:16:06;;;;;;;0.00;0.00;;;4.20;99.90;;;;;;4995682;28;20589;-80
2021/12/15 03:18:32;;;;;;;0.47;0.35;;;4.20;99.90;;;;;;4994384;28;20457;-78
2021/12/15 03:21:01;;;;;;;0.00;0.00;;;4.20;99.90;;;;;;4995741;28;20040;-80
2021/12/15 03:23:31;;;;;;;0.00;0.00;;;4.20;99.90;;;;;;4995911;28;20104;-78
2021/12/15 03:25:59;;;;;;;0.20;0.20;;;4.10;99.90;;;;;;5003217;28;20045;-78
2021/12/15 03:39:24;;;;;;;0.05;0.05;;;4.10;99.90;;;;;;5015131;28;20159;-77
2021/12/15 03:41:57;;;;;;;0.00;0.00;;;4.10;99.90;;;;;;5015308;28;20037;-78
2021/12/15 03:44:23;;;;;;;0.00;0.00;;;4.10;99.90;;;;;;5014969;28;20029;-80
2021/12/15 03:46:50;;;;;;;0.00;0.00;;;4.10;99.90;;;;;;5015131;28;20026;-80
2021/12/15 03:49:16;;;;;;;0.22;0.22;;;4.20;99.90;;;;;;5011991;28;20026;-78
2021/12/15 03:51:42;;;;;;;0.00;0.00;;;4.10;99.90;;;;;;4995176;28;20026;-80
2021/12/15 03:54:08;;;;;;;0.75;0.28;;;4.20;99.90;;;;;;4994628;28;20133;-78
2021/12/15 03:56:36;;;;;;;0.70;0.25;;;4.10;99.90;;;;;;4994312;28;20027;-80
2021/12/15 03:59:03;;;;;;;0.15;0.15;;;4.10;99.90;;;;;;4994990;28;20078;-78
2021/12/15 04:01:29;;;;;;;0.00;0.00;;;4.10;99.90;;;;;;4994811;28;20057;-78
2021/12/15 04:03:55;;;;;;;0.10;0.10;;;4.10;99.90;;;;;;4994917;28;20066;-78
2021/12/15 04:06:28;;;;;;;0.17;0.17;;;4.10;99.90;;;;;;4992869;28;20112;-77
2021/12/15 04:08:54;;;;;;;0.00;0.00;;;4.20;99.90;;;;;;4994794;28;20362;-80
2021/12/15 04:11:23;;;;;;;0.15;0.15;;;4.10;99.90;;;;;;4993826;28;20030;-77
2021/12/15 04:13:51;;;;;;;0.10;0.10;;;4.10;99.90;;;;;;4994954;28;20027;-78
2021/12/15 04:18:59;;;;;;;0.00;0.00;;;4.10;99.90;;;;;;4994532;28;20026;-80
2021/12/15 04:21:25;;;;;;;0.25;0.25;;;4.00;99.90;;;;;;4994699;28;20490;-77
2021/12/15 04:23:54;;;;;;;0.57;0.57;;;4.00;99.90;;;;;;4994867;28;20026;-78
2021/12/15 04:26:20;;;;;;;0.00;0.00;;;4.00;99.90;;;;;;5006405;28;20470;-80
2021/12/15 04:28:47;;;;;;;0.10;0.10;;;4.00;99.90;;;;;;5014320;28;20026;-78
2021/12/15 04:31:15;;;;;;;0.00;0.00;;;4.00;99.90;;;;;;5012752;28;20022;-77
2021/12/15 04:33:55;;;;;;;0.15;0.15;;;4.00;99.90;;;;;;5013855;28;20037;-78
2021/12/15 04:36:25;;;;;;;0.45;0.45;;;4.00;99.90;;;;;;5014128;28;20037;-80
2021/12/15 04:38:52;;;;;;;0.00;0.00;;;3.90;99.90;;;;;;5013998;28;20164;-78
2021/12/15 04:41:20;;;;;;;0.00;0.00;;;3.90;99.90;;;;;;5014011;28;20069;-78
2021/12/15 04:43:56;;;;;;;0.00;0.00;;;3.80;99.90;;;;;;5011644;28;20033;-77
2021/12/15 04:46:28;;;;;;;0.00;0.00;;;3.90;99.90;;;;;;5014113;28;20045;-78
2021/12/15 04:48:54;;;;;;;0.10;0.10;;;3.90;99.90;;;;;;5013656;28;20599;-80
2021/12/15 04:51:20;;;;;;;0.05;0.05;;;3.80;99.90;;;;;;4995455;28;20018;-80
2021/12/15 04:53:47;;;;;;;0.17;0.17;;;3.90;99.90;;;;;;4994124;28;20045;-78
2021/12/15 04:56:14;;;;;;;0.00;0.00;;;3.90;99.90;;;;;;4994342;28;20117;-78
2021/12/15 04:58:40;;;;;;;0.03;0.03;;;3.90;99.90;;;;;;4993791;28;20080;-78
2021/12/15 05:01:09;;;;;;;0.00;0.00;;;3.90;99.90;;;;;;4993696;28;20085;-78
2021/12/15 05:03:35;;;;;;;0.30;0.30;;;3.90;99.90;;;;;;4994129;28;20142;-80
2021/12/15 05:06:02;;;;;;;0.45;0.28;;;3.90;99.90;;;;;;4993281;28;20034;-78
2021/12/15 05:08:27;;;;;;;0.38;0.20;;;4.00;99.90;;;;;;4993677;28;20030;-78
2021/12/15 05:10:55;;;;;;;0.20;0.20;;;4.00;99.90;;;;;;4994048;28;20503;-78
2021/12/15 05:13:22;;;;;;;0.00;0.00;;;4.00;99.90;;;;;;4993766;28;20061;-77
2021/12/15 05:15:48;;;;;;;0.00;0.00;;;4.00;99.90;;;;;;4991363;28;20046;-79
2021/12/15 05:18:13;;;;;;;0.00;0.00;;;4.00;99.90;;;;;;4993615;28;20093;-78
2021/12/15 05:20:40;;;;;;;0.00;0.00;;;4.00;99.90;;;;;;4992166;28;20113;-78
2021/12/15 05:23:07;;;;;;;0.00;0.00;;;4.00;99.90;;;;;;4993771;28;20490;-77
2021/12/15 05:25:33;;;;;;;0.00;0.00;;;4.00;99.90;;;;;;4998883;28;20105;-77
2021/12/15 05:28:00;;;;;;;0.45;0.45;;;4.00;99.90;;;;;;5011751;28;20026;-80
2021/12/15 05:30:25;;;;;;;0.03;0.03;;;3.90;99.90;;;;;;5013179;28;20079;-78
2021/12/15 05:32:51;;;;;;;0.00;0.00;;;3.90;99.90;;;;;;5013224;28;20034;-78
2021/12/15 05:35:22;;;;;;;0.10;0.10;;;4.00;99.90;;;;;;5012849;28;20036;-78
2021/12/15 05:37:52;;;;;;;1.65;0.30;;;4.00;99.90;;;;;;5011536;28;20451;-78
2021/12/15 05:40:18;;;;;;;1.35;0.52;;;4.00;99.90;;;;;;5011353;28;20026;-78
2021/12/15 05:42:43;;;;;;;0.00;0.00;;;4.00;99.90;;;;;;5013087;28;20402;-80
2021/12/15 05:45:10;;;;;;;0.00;0.00;;;4.00;99.90;;;;;;5012760;28;20036;-78
2021/12/15 05:47:36;;;;;;;0.00;0.00;;;4.00;99.90;;;;;;5013017;28;20026;-78
2021/12/15 05:50:06;;;;;;;0.05;0.05;;;4.00;99.90;;;;;;5004891;28;20532;-78
2021/12/15 05:52:32;;;;;;;0.00;0.00;;;4.00;99.90;;;;;;4992850;28;20109;-78
2021/12/15 05:54:58;;;;;;;0.00;0.00;;;4.00;99.90;;;;;;5012501;28;20116;-80
2021/12/15 05:57:25;;;;;;;0.00;0.00;;;4.00;99.90;;;;;;5011990;28;20077;-78
2021/12/15 05:59:51;;;;;;;0.15;0.15;;;4.10;99.90;;;;;;5012573;28;20399;-78
2021/12/15 06:02:17;;;;;;;0.10;0.10;;;4.00;99.90;;;;;;5011073;28;20508;-78
2021/12/15 06:04:42;;;;;;;0.10;0.10;;;4.10;99.90;;;;;;5012366;28;20101;-77
2021/12/15 06:07:08;;;;;;;0.00;0.00;;;4.00;99.90;;;;;;5012489;28;20485;-80
2021/12/15 06:09:34;;;;;;;0.00;0.00;;;4.00;99.90;;;;;;5012810;28;20084;-80
2021/12/15 06:12:01;;;;;;;0.00;0.00;;;4.00;99.90;;;;;;5011865;28;20022;-77
2021/12/15 06:14:28;;;;;;;0.00;0.00;;;4.10;99.90;;;;;;5012520;28;20072;-78
2021/12/15 06:17:00;;;;;;;0.47;0.38;;;4.10;99.90;;;;;;5011246;28;20528;-78
2021/12/15 06:19:26;;;;;;;0.10;0.10;;;4.10;99.90;;;;;;5015051;28;20072;-80
2021/12/15 06:21:52;;;;;;;0.00;0.00;;;4.10;99.90;;;;;;5016480;28;20512;-78
2021/12/15 06:24:18;;;;;;;0.00;0.00;;;4.10;99.90;;;;;;5016475;28;20026;-78
2021/12/15 06:26:43;;;;;;;0.00;0.00;;;4.10;99.90;;;;;;5000625;28;20276;-78
2021/12/15 06:29:09;;;;;;;0.28;0.10;;;4.10;99.90;;;;;;4995125;28;20045;-78
2021/12/15 06:31:35;;;;;;;0.00;0.00;;;4.00;99.90;;;;;;4996407;28;20023;-78
2021/12/15 06:34:02;;;;;;;0.20;0.20;;;4.00;99.90;;;;;;4996566;28;20027;-78
2021/12/15 06:36:30;;;;;;;0.00;0.00;;;4.00;99.90;;;;;;5007322;28;20087;-78
2021/12/15 06:38:56;;;;;;;0.45;0.20;;;4.10;99.90;;;;;;5014112;28;20018;-78
2021/12/15 06:41:22;;;;;;;0.65;0.65;;;4.10;99.90;;;;;;5021218;28;20033;-79
2021/12/15 06:43:53;;;;;;;0.00;0.00;;;4.20;99.90;;;;;;5004037;28;20484;-78
2021/12/15 06:59:48;;;;;;;0.00;0.00;;;4.10;99.90;;;;;;5015861;28;20396;-81
2021/12/15 07:02:15;;;;;;;0.00;0.00;;;4.10;99.90;;;;;;4998207;28;20038;-79
2021/12/15 07:04:41;;;;;;;0.00;0.00;;;4.10;99.90;;;;;;5001774;28;20026;-79
2021/12/15 07:07:07;;;;;;;0.00;0.00;;;4.10;99.90;;;;;;5010821;28;20052;-79
2021/12/15 07:09:33;;;;;;;0.00;0.00;;;4.10;99.90;;;;;;5015059;28;20438;-79
2021/12/15 07:12:00;;;;;;;0.00;0.00;;;4.10;99.90;;;;;;5011034;28;20027;-81
2021/12/15 07:14:26;;;;;;;0.00;0.00;;;4.00;99.90;;;;;;5017969;28;20025;-80
2021/12/15 07:16:55;;;;;;;0.00;0.00;;;4.00;99.90;;;;;;5006360;28;20040;-78
2021/12/15 07:22:08;;;;;;;0.00;0.00;;;4.00;99.90;;;;;;5006862;28;20045;-79
2021/12/15 07:24:35;;;;;;;0.03;0.03;;;4.00;99.90;;;;;;5007393;28;20493;-79
2021/12/15 07:27:02;;;;;;;0.00;0.00;;;4.00;99.90;;;;;;4997453;28;20359;-80
2021/12/15 07:29:29;;;;;;;0.13;0.13;;;3.90;99.90;;;;;;5013200;28;20033;-79
2021/12/15 07:31:55;;;;;;;0.00;0.00;;;3.90;99.90;;;;;;5002325;28;20069;-79
2021/12/15 07:34:21;;;;;;;0.00;0.00;;;3.90;99.90;;;;;;5003550;28;20033;-79
2021/12/15 07:36:47;;;;;;;0.10;0.00;;;3.90;99.90;;;;;;5006346;28;20371;-79
2021/12/15 07:39:14;;;;;;;0.00;0.00;;;4.00;99.90;;;;;;5003649;28;20041;-80
2021/12/15 07:41:49;;;;;;;0.00;0.00;;;4.00;99.90;;;;;;5012744;28;20026;-79
2021/12/15 07:44:16;;;;;;;0.03;0.03;;;4.00;99.90;;;;;;5003458;28;20042;-79
2021/12/15 07:46:43;;;;;;;0.10;0.10;;;4.00;99.90;;;;;;4993594;28;20018;-79
2021/12/15 07:49:09;;;;;;;0.00;0.00;;;4.00;99.90;;;;;;5001400;28;20105;-79
2021/12/15 07:51:35;;;;;;;0.00;0.00;;;4.00;99.90;;;;;;5005304;28;20030;-81
2021/12/15 07:54:00;;;;;;;0.00;0.00;;;4.00;99.90;;;;;;5012298;28;20022;-79
2021/12/15 07:56:26;;;;;;;0.00;0.00;;;3.90;99.90;;;;;;5005936;28;20493;-79
2021/12/15 07:58:52;;;;;;;0.47;0.47;;;4.00;99.90;;;;;;4997500;28;20117;-80
2021/12/15 08:01:19;;;;;;;0.00;0.00;;;4.00;99.90;;;;;;4995961;28;20041;-80
2021/12/15 08:03:51;;;;;;;0.00;0.00;;;3.90;99.90;;;;;;5007758;28;20029;-79
2021/12/15 08:06:17;;;;;;;0.10;0.10;;;3.90;99.90;;;;;;5002353;28;20046;-79
2021/12/15 08:08:42;;;;;;;0.00;0.00;;;3.90;99.90;;;;;;5007688;28;20441;-82
2021/12/15 08:11:08;;;;;;;0.00;0.00;;;4.00;99.90;;;;;;4995278;28;20046;-81
2021/12/15 08:13:36;;;;;;;0.00;0.00;;;4.00;99.90;;;;;;5006448;28;20034;-80
2021/12/15 08:16:03;;;;;;;0.00;0.00;;;4.00;99.90;;;;;;5010146;28;20067;-77
2021/12/15 08:18:29;;;;;;;0.35;0.35;;;4.00;99.90;;;;;;5010496;28;20745;-78
2021/12/15 08:20:54;;;;;;;0.05;0.05;;;4.10;99.90;;;;;;5003560;28;20034;-80
2021/12/15 08:23:21;;;;;;;0.05;0.05;;;4.10;99.90;;;;;;5000645;28;20026;-78
2021/12/15 08:25:47;;;;;;;0.00;0.00;;;4.20;99.90;;;;;;5008986;28;20036;-79
2021/12/15 08:28:13;;;;;;;0.03;0.03;;;4.10;99.90;;;;;;5006962;28;20050;-80
2021/12/15 08:30:41;;;;;;;0.00;0.00;;;4.20;99.90;;;;;;5001964;28;20106;-80
2021/12/15 08:33:11;;;;;;;0.00;0.00;;;4.20;99.90;;;;;;4993319;28;20022;-81
2021/12/15 08:35:42;;;;;;;1.65;0.32;;;4.20;99.90;;;;;;4992182;28;20030;-79
2021/12/15 08:38:09;;;;;;;0.00;0.00;;;4.30;99.90;;;;;;5000726;28;20080;-79
2021/12/15 08:40:36;;;;;;;0.00;0.00;;;4.30;99.90;;;;;;4997474;28;20062;-81
2021/12/15 08:43:03;;;;;;;0.00;0.00;;;4.30;99.90;;;;;;4996894;28;20081;-79
2021/12/15 08:45:30;;;;;;;0.65;0.20;;;4.20;99.90;;;;;;5005289;28;20027;-81
2021/12/15 08:47:58;;;;;;;1.00;0.38;;;4.20;99.90;;;;;;4999533;28;20443;-78
2021/12/15 08:50:27;;;;;;;0.00;0.00;;;4.20;99.90;;;;;;5003602;28;20022;-79
2021/12/15 08:52:57;;;;;;;0.00;0.00;;;4.20;99.90;;;;;;5010314;28;20033;-80
2021/12/15 08:55:24;;;;;;;0.00;0.00;;;4.30;99.90;;;;;;5006667;28;20041;-80
2021/12/15 08:57:53;;;;;;;0.00;0.00;;;4.30;99.90;;;;;;5010622;28;20085;-79
2021/12/15 09:00:21;;;;;;;0.00;0.00;;;4.20;99.90;;;;;;5002790;28;20041;-77
2021/12/15 09:02:47;;;;;;;0.15;0.15;;;4.20;99.90;;;;;;4989716;28;20120;-79
2021/12/15 09:05:20;;;;;;;0.32;0.32;;;4.30;99.90;;;;;;4991486;28;20109;-78
2021/12/15 09:07:48;;;;;;;0.20;0.20;;;4.30;99.90;;;;;;5005858;28;20018;-80
2021/12/15 09:10:13;;;;;;;0.00;0.00;;;4.30;99.90;;;;;;5011802;28;20384;-81
2021/12/15 09:12:39;;;;;;;0.00;0.00;;;4.40;99.90;;;;;;5008243;28;20022;-82
2021/12/15 09:15:07;;;;;;;0.00;0.00;;;4.40;99.90;;;;;;4992383;28;20042;-79
2021/12/15 09:17:33;;;;;;;0.00;0.00;;;4.40;99.90;;;;;;5007931;28;20029;-82
2021/12/15 09:19:59;;;;;;;0.05;0.05;;;4.50;99.90;;;;;;5009939;28;20092;-83
2021/12/15 09:22:25;;;;;;;0.05;0.05;;;4.60;99.90;;;;;;5016576;28;20014;-81
2021/12/15 09:24:51;;;;;;;0.00;0.00;;;4.50;99.90;;;;;;5016331;28;20081;-80
2021/12/15 09:27:17;;;;;;;0.00;0.00;;;4.50;99.90;;;;;;5016688;28;20049;-81
2021/12/15 09:29:43;;;;;;;0.00;0.00;;;4.60;99.90;;;;;;5017457;28;20023;-82
2021/12/15 09:32:09;;;;;;;0.13;0.13;;;4.60;99.90;;;;;;5019837;28;20077;-84
2021/12/15 09:34:36;;;;;;;0.00;0.00;;;4.70;99.90;;;;;;5036820;28;20021;-82
2021/12/15 09:37:04;;;;;;;0.00;0.00;;;4.90;99.90;;;;;;5035945;28;20014;-83
2021/12/15 09:39:31;;;;;;;0.00;0.00;;;5.00;99.90;;;;;;5030996;28;20021;-82
2021/12/15 09:41:59;;;;;;;0.00;0.00;;;4.80;99.90;;;;;;5017149;28;20117;-83
2021/12/15 09:44:27;;;;;;;0.10;0.10;;;4.90;99.90;;;;;;4999369;28;20023;-83
2021/12/15 10:03:46;;;;;;;0.85;0.28;;;5.20;99.90;;;;;;5004595;28;20038;-83
2021/12/15 10:06:28;;;;;;;0.10;0.10;;;5.30;99.90;;;;;;5005752;28;20517;-84
2021/12/15 10:12:16;;;;;;;0.00;0.00;;;5.40;99.90;;;;;;4999198;28;20042;-85
2021/12/15 10:17:47;;;;;;;0.00;0.00;;;5.40;99.90;;;;;;5006434;28;20112;-82
2021/12/15 10:20:44;;;;;;;0.00;0.00;;;5.80;99.90;;;;;;5009521;28;20034;-80
2021/12/15 10:23:22;;;;;;;0.00;0.00;;;6.10;99.90;;;;;;4997472;28;20041;-82
2021/12/15 10:25:59;;;;;;;0.00;0.00;;;6.30;99.90;;;;;;5010955;28;20045;-82
2021/12/15 10:28:29;;;;;;;0.00;0.00;;;6.50;99.90;;;;;;5000574;28;20129;-84
2021/12/15 10:31:00;;;;;;;0.70;0.55;;;6.40;99.90;;;;;;5009014;28;20026;-79
2021/12/15 10:33:31;;;;;;;0.00;0.00;;;6.50;99.90;;;;;;5003136;28;20050;-84
2021/12/15 10:36:05;;;;;;;0.40;0.32;;;6.50;99.90;;;;;;5022653;28;20434;-81
2021/12/15 10:38:39;;;;;;;0.00;0.00;;;6.60;99.90;;;;;;5009380;28;20019;-80
2021/12/15 10:41:31;;;;;;;0.03;0.03;;;6.60;99.90;;;;;;4991157;28;20030;-84
2021/12/15 10:44:05;;;;;;;0.00;0.00;;;6.70;99.90;;;;;;5010862;28;20025;-81
2021/12/15 10:46:49;;;;;;;0.00;0.00;;;6.70;99.90;;;;;;5015119;28;20428;-81
2021/12/15 10:49:25;;;;;;;0.32;0.32;;;6.60;99.90;;;;;;5021592;28;20014;-80
2021/12/15 10:52:11;;;;;;;0.00;0.00;;;6.70;99.90;;;;;;5023593;28;20034;-81
2021/12/15 10:54:46;;;;;;;0.00;0.00;;;6.80;99.90;;;;;;5020785;28;20026;-82
2021/12/15 10:57:38;;;;;;;0.00;0.00;;;6.90;99.90;;;;;;5023479;28;20046;-84
2021/12/15 11:00:11;;;;;;;0.00;0.00;;;6.80;99.90;;;;;;5014516;28;20030;-81
2021/12/15 11:03:14;;;;;;;0.40;0.40;;;7.00;99.90;;;;;;5018915;28;20052;-82
2021/12/15 11:05:42;;;;;;;1.85;0.40;;;7.20;99.90;;;;;;5021109;28;20050;-82
2021/12/15 11:08:19;;;;;;;2.45;0.20;;;7.40;99.90;;;;;;5036803;28;20080;-81
2021/12/15 11:10:50;;;;;;;0.10;0.10;;;7.40;99.90;;;;;;5005582;28;20473;-83
2021/12/15 11:13:33;;;;;;;0.00;0.00;;;7.40;99.90;;;;;;5014452;28;20052;-81
2021/12/15 11:16:05;;;;;;;0.15;0.15;;;7.50;99.90;;;;;;4997127;28;20026;-81
2021/12/15 11:18:35;;;;;;;0.00;0.00;;;7.50;99.90;;;;;;5008985;28;20034;-83
2021/12/15 11:21:08;;;;;;;0.00;0.00;;;7.70;99.90;;;;;;4998571;28;20489;-84
2021/12/15 11:23:34;;;;;;;0.00;0.00;;;7.80;99.90;;;;;;4996049;28;20034;-81
2021/12/15 11:26:07;;;;;;;0.00;0.00;;;8.00;99.90;;;;;;5010316;28;20026;-83
2021/12/15 11:28:49;;;;;;;0.88;0.35;;;8.00;99.90;;;;;;4996747;28;20022;-82
2021/12/15 11:31:25;;;;;;;0.00;0.00;;;8.10;99.90;;;;;;4998969;28;20026;-83
2021/12/15 11:33:56;;;;;;;0.00;0.00;;;8.10;99.90;;;;;;5013049;28;20026;-83
2021/12/15 11:36:27;;;;;;;1.00;0.80;;;8.20;99.90;;;;;;5007870;28;20022;-83
2021/12/15 11:39:00;;;;;;;0.00;0.00;;;8.20;99.90;;;;;;5006566;28;20021;-82
2021/12/15 11:41:33;;;;;;;0.10;0.10;;;8.40;99.90;;;;;;5009021;28;20030;-82
2021/12/15 11:44:06;;;;;;;0.00;0.00;;;8.50;99.90;;;;;;5002922;28;20027;-82
2021/12/15 11:46:42;;;;;;;0.20;0.20;;;8.50;99.90;;;;;;4990048;28;20038;-83
2021/12/15 11:49:14;;;;;;;0.00;0.00;;;8.50;99.90;;;;;;4988970;28;20035;-82
2021/12/15 11:51:49;;;;;;;0.00;0.00;;;8.70;99.90;;;;;;4989369;28;20030;-83
2021/12/15 11:54:23;;;;;;;0.00;0.00;;;8.90;99.90;;;;;;4992447;28;20397;-82
2021/12/15 11:57:21;;;;;;;0.00;0.00;;;8.90;99.90;;;;;;4993364;28;20034;-84
2021/12/15 11:59:50;;;;;;;0.00;0.00;;;9.00;99.90;;;;;;5004773;28;20018;-84
2021/12/15 12:02:25;;;;;;;0.00;0.00;;;9.10;99.90;;;;;;5002243;28;20034;-83
2021/12/15 12:05:00;;;;;;;0.00;0.00;;;9.20;99.90;;;;;;5011466;28;20030;-84
2021/12/15 12:07:30;;;;;;;0.08;0.08;;;9.10;99.90;;;;;;4994863;28;20038;-83
2021/12/15 12:10:04;;;;;;;0.00;0.00;;;9.00;99.90;;;;;;4993117;28;20033;-83
2021/12/15 12:12:37;;;;;;;0.00;0.00;;;9.10;99.90;;;;;;4992551;28;20027;-83
2021/12/15 12:15:13;;;;;;;0.00;0.00;;;9.20;99.90;;;;;;4995137;28;20022;-83
2021/12/15 12:17:40;;;;;;;0.00;0.00;;;9.30;99.90;;;;;;4998600;28;20088;-83
2021/12/15 12:20:09;;;;;;;0.20;0.20;;;9.30;99.90;;;;;;5008908;28;20045;-84
2021/12/15 12:22:36;;;;;;;0.00;0.00;;;9.50;99.90;;;;;;4992888;28;20056;-83
2021/12/15 12:25:08;;;;;;;0.10;0.10;;;9.70;99.90;;;;;;5003863;28;20049;-83
2021/12/15 12:27:34;;;;;;;0.00;0.00;;;9.60;99.90;;;;;;4991671;28;20050;-83
2021/12/15 12:30:04;;;;;;;0.00;0.00;;;9.60;99.90;;;;;;5007561;28;20029;-83
2021/12/15 12:32:30;;;;;;;0.00;0.00;;;9.60;99.90;;;;;;5010303;28;20026;-84
2021/12/15 12:34:57;;;;;;;0.00;0.00;;;9.70;99.90;;;;;;5011013;28;20508;-82
2021/12/15 12:37:23;;;;;;;0.00;0.00;;;9.80;99.90;;;;;;4998638;28;20034;-83
2021/12/15 12:39:56;;;;;;;0.00;0.00;;;9.90;99.90;;;;;;4996972;28;20030;-83
2021/12/15 12:42:31;;;;;;;0.00;0.00;;;10.00;99.90;;;;;;5002305;28;20108;-83
2021/12/15 12:45:14;;;;;;;0.00;0.00;;;10.10;99.90;;;;;;5011599;28;20060;-83
2021/12/15 12:47:58;;;;;;;0.25;0.25;;;10.10;99.90;;;;;;5012187;28;20374;-83
2021/12/15 12:51:05;;;;;;;0.05;0.05;;;10.30;99.90;;;;;;5001444;28;20022;-83
2021/12/15 12:59:39;;;;;;;0.00;0.00;;;10.50;99.90;;;;;;4992998;28;20601;-84
2021/12/15 13:02:30;;;;;;;0.08;0.08;;;10.40;99.90;;;;;;4988558;28;20042;-84
2021/12/15 13:04:56;;;;;;;0.00;0.00;;;10.50;99.90;;;;;;5009725;28;20037;-83
2021/12/15 13:07:52;;;;;;;0.00;0.00;;;10.50;99.90;;;;;;5008308;28;20519;-83
2021/12/15 13:10:19;;;;;;;0.00;0.00;;;10.30;99.90;;;;;;5010692;28;20110;-83
2021/12/15 13:12:49;;;;;;;0.00;0.00;;;10.30;99.90;;;;;;5010242;28;20109;-83
2021/12/15 13:15:20;;;;;;;0.10;0.00;;;10.30;99.90;;;;;;5003524;28;20235;-83
2021/12/15 13:18:03;;;;;;;0.10;0.10;;;10.30;99.90;;;;;;4990953;28;20049;-83
2021/12/15 13:20:34;;;;;;;0.43;0.40;;;10.60;99.90;;;;;;4991096;28;20468;-83
2021/12/15 13:23:30;;;;;;;0.57;0.52;;;10.80;99.90;;;;;;4991359;28;20088;-83
2021/12/15 13:31:08;;;;;;;0.32;0.32;;;11.30;99.90;;;;;;4993998;28;20042;-82
2021/12/15 13:33:38;;;;;;;4.00;0.17;;;11.40;99.90;;;;;;4991075;28;20057;-82
2021/12/15 13:36:07;;;;;;;0.32;0.32;;;11.50;99.90;;;;;;4991659;28;20109;-82
2021/12/15 13:38:52;;;;;;;0.00;0.00;;;11.30;99.90;;;;;;4990993;28;20116;-81
2021/12/15 13:41:37;;;;;;;0.00;0.00;;;11.20;99.90;;;;;;4990737;28;20038;-82
2021/12/15 13:44:20;;;;;;;0.00;0.00;;;11.20;99.90;;;;;;4991008;28;20113;-83
2021/12/15 13:47:14;;;;;;;0.00;0.00;;;11.00;99.90;;;;;;4991195;28;20054;-82
2021/12/15 13:50:13;;;;;;;0.10;0.10;;;11.00;99.90;;;;;;4995030;28;20037;-82
2021/12/15 13:52:44;;;;;;;0.00;0.00;;;11.20;99.90;;;;;;5010131;28;20034;-82
2021/12/15 13:55:21;;;;;;;0.22;0.22;;;11.20;99.90;;;;;;5010708;28;20022;-82
2021/12/15 13:57:47;;;;;;;0.35;0.25;;;10.90;99.90;;;;;;5002834;28;20505;-82
2021/12/15 14:00:35;;;;;;;0.00;0.00;;;10.90;99.90;;;;;;4994523;28;20121;-82
2021/12/15 14:03:21;;;;;;;0.00;0.00;;;10.80;99.90;;;;;;4976466;28;20037;-82
2021/12/15 14:06:04;;;;;;;0.40;0.28;;;10.90;99.90;;;;;;4999767;28;20130;-81
2021/12/15 14:08:42;;;;;;;0.00;0.00;;;10.80;99.90;;;;;;5009144;28;20033;-82
2021/12/15 14:11:21;;;;;;;0.00;0.00;;;11.00;99.90;;;;;;5004934;28;20279;-81
2021/12/15 14:14:01;;;;;;;0.00;0.00;;;11.10;99.90;;;;;;5005983;28;20026;-85
2021/12/15 14:16:29;;;;;;;0.10;0.10;;;11.00;99.90;;;;;;4996235;28;20035;-85
2021/12/15 14:18:58;;;;;;;0.00;0.00;;;11.00;99.90;;;;;;4990667;28;20022;-85
2021/12/15 14:21:23;;;;;;;0.00;0.00;;;10.90;99.90;;;;;;4988527;28;20030;-81
2021/12/15 14:23:51;;;;;;;0.00;0.00;;;10.80;99.90;;;;;;4992774;28;20062;-81
2021/12/15 14:26:26;;;;;;;0.00;0.00;;;10.80;99.90;;;;;;5010583;28;20026;-84
2021/12/15 14:29:00;;;;;;;0.20;0.00;;;11.00;99.90;;;;;;4991177;28;20026;-86
2021/12/15 14:31:32;;;;;;;0.40;0.40;;;11.20;99.90;;;;;;5007945;28;20396;-82
2021/12/15 14:34:03;;;;;;;0.00;0.00;;;11.10;99.90;;;;;;4994512;28;20026;-81
2021/12/15 14:36:32;;;;;;;0.00;0.00;;;11.00;99.90;;;;;;5006756;28;20493;-81
2021/12/15 14:39:27;;;;;;;0.00;0.00;;;11.20;99.90;;;;;;4992828;28;20030;-85
2021/12/15 14:41:58;;;;;;;0.90;0.40;;;11.10;99.90;;;;;;4994285;28;20042;-85